Southern Belle Race - Toss 12 Miles

Station: Trinity Church - T Race

Distance: 12 Miles    

Release: 14-Sep-2020 07:35

Weather Release:    Arrival:

Wind at Release:     Wind at Arrival:

Temp at Release: °    Temp at Arrival: °

Lofts: 270

Birds: 1095

Clocked: 1089

Groups
Drops Pos Breeder Pigeon Name Color Sex Ent Arrival Speed To Win Elg PdP100P200
1 Clausing - FL 0171-IF20-CLAU BBWF H 1 07:59:01.51 879.078 00:00:00 Yes
2 J H C Loft - AL 6677-AU20-ARPU BB H 1 07:59:05.22 876.822 00:00:04 Yes
3 Crooked River Challenge - OR 4218-AU20-CORP 4663 x 2256 BBWF C 1 07:59:07.21 875.616 00:00:06 Yes
4 Five Oaks Loft - VA 0216-IF20-AFL Lucky 216 BB H 1 07:59:08.38 874.909 00:00:07 Yes
5 Warren Sawyers Loft - FL 1777-IF20-JAX 2ndchance@1st BB H 1 07:59:09.74 874.088 00:00:08 Yes
6 Clausing - FL 0152-IF20-CLAU BB H 2 07:59:11.28 873.160 00:00:10 Yes
7 Y Mtn Loft - TN 26682-AU20-YMTN BC H 1 07:59:11.76 872.872 00:00:10 Yes
8 Jiang Tou Loft - TN 8897-AU20-TOU 🟥🟥惊艳🟥🟥 BB H 1 07:59:13.60 871.767 00:00:12 Yes
9 Devore Loft - GA 9926-AU20-DEVO 590x349 BB H 1 07:59:17.13 869.655 00:00:16 Yes
10 Flying D Loft - TX 0510-IF20-FLYD Psc 162- Flyd 1027 DC H 1 07:59:17.23 869.595 00:00:16 Yes
11 Fl Lin Loft - FL 1810-AU20-ARPU BBWF C 1 07:59:17.96 869.160 00:00:16 Yes
12 Zulu Synd. - VA 0424-IF20-MAIE RC C 1 07:59:18.56 868.802 00:00:17 Yes
13 Candela D Pigeon Loft - GA 0019-AU20-NEA Ruth BC H 1 07:59:18.66 868.743 00:00:17 Lost
14 Ferrer Family Loft - TX 20510-AU20-WIN BB H 1 07:59:20.80 867.470 00:00:19 Yes
15 Hi-Cal Connection - CA 0821-AU20-HICA BBWF H 1 07:59:21.04 867.327 00:00:20 Yes
16 S Procopoi Loft - GA 41843-AU20-ARPU BB H 1 07:59:21.65 866.965 00:00:20 Yes
17 Candela D Pigeon Loft - GA 0023-AU20-NEA El Rey BCWF H 2 07:59:25.77 864.529 00:00:24 Yes
18 Charlie Barbiere - NJ 4598-IF20-BSC "my way " BB H 1 07:59:26.01 864.387 00:00:24 Yes
19 KT Loft - IN 0450-AU20-KTLO BB H 1 07:59:26.86 863.886 00:00:25 Yes
20 Alfa Loft Syndicate - NC 0067-AU20-WNC BB C 1 07:59:28.86 862.710 00:00:27 Yes
21 Barry & Shawnie - MI 0999-AU20-CDR BC H 1 07:59:30.55 861.718 00:00:29 Yes
22 Christopher Loft - UT 20112-AU20-GS BCSP H 1 07:59:34.74 859.270 00:00:33 Yes
23 Skylab-Midwestpeter-Thame Syndicate - MN 0208-AU20-MIDW ADMIRAL BLUE BB H 1 07:59:45.95 852.788 00:00:44 Yes
24 Candela D Pigeon Loft - GA 0014-AU20-NEA Mariposa BCWF H 3 07:59:50.53 850.167 00:00:49 Yes
25 Flying Dragon Loft - GA 0820-AU20-GA BB H 1 07:59:58.23 845.798 00:00:57 Yes
26 Peters - GA 0022-AU20-JAZZ JAZZY BABY BBTI H 1 07:59:58.70 845.533 00:00:57 Yes
27 Whell's Loft - CA 16318-AU20-AA “small But Terrible 1 BCWF H 1 08:00:00.70 844.406 00:00:59 Yes
28 First Flight Loft - GA 0627-AU20-NEA CHOC H 1 08:00:02.03 843.658 00:01:01 Yes
29 Procopoi Loft - GA 41835-AU20-ARPU BCSP H 1 08:00:02.73 843.265 00:01:01 Lost
30 Peters - GA 0013-AU20-PETE Red Baron RC H 2 08:00:03.12 843.046 00:01:02 Yes
31 Mc Laughlin Lofts - MA 0757-AU20-MCLO GRIZ H 1 08:00:03.35 842.917 00:01:02 Yes
32 Nemeth Family Loft - CA 0674-AU20-NEME BBWF H 1 08:00:05.98 841.445 00:01:04 Lost
33 Xiao Loft - WI 3191-AU20-RAC BBWF H 1 08:00:07.28 840.720 00:01:06 Yes
34 John R Helms - AL 1033-AU20-HELM BB H 1 08:00:11.21 838.533 00:01:10 Yes
35 Liqing Ni Loft - NY 0025-AU20-YANG 167x832🦄🦄🦄 PEN H 1 08:00:12.04 838.073 00:01:11 Yes
36 Kenny Chen & Patrick Kwan - FL 2030-AU20-KWAN BB H 1 08:00:12.98 837.552 00:01:11 Yes
37 Devore Loft - GA 0046-AU20-NA 719x118 BB H 2 08:00:13.48 837.276 00:01:12 Yes
38 Zhongyi Wang - NY 56372-AU20-ARPU WHGR H 1 08:00:16.32 835.708 00:01:15 Yes
39 Minnuies Family Loft - NJ 4464-IF20-BSC Quit your cryan BC C 1 08:00:17.75 834.920 00:01:16 Yes
40 Walters Loft - NJ 56414-AU20-ARPU BB H 1 08:00:18.46 834.530 00:01:17 Yes
41 Demers Loft - MI 0013-AU20-DEME BB H 1 08:00:49.43 817.849 00:01:48 Yes
42 Clausing - FL 0173-IF20-CLAU Phoebe Wyatt BC H 3 08:01:09.30 807.494 00:02:08 Yes
43 Chen & Liu Family - CT 0058-IF20-LIU RC H 1 08:01:14.32 804.919 00:02:13 Yes
44 Juan Ganga - FL 0051-AU20-ALON BC H 1 08:01:31.76 796.100 00:02:30 Yes
45 Clausing - FL 0150-IF20-CLAU BB H 4 08:01:34.00 794.981 00:02:32 Yes
46 Flying Dragon Loft - GA 0606-AU20-GA BB H 2 08:01:38.78 792.604 00:02:37 Yes
47 Tian Loft - FL 30116-AU20-ARPU BB C 1 08:01:45.29 789.390 00:02:44 Yes
48 Sugar Loft - FL 1206-AU20-CAPE USA SWEET HEART BB H 1 08:01:48.32 787.903 00:02:47 Yes
49 S Procopoi Loft - GA 41860-AU20-ARPU BB H 2 08:01:53.65 785.300 00:02:52 Yes
50 Team Usa - FL 3352-AU20-ARPU Chocolate Dream CHOC H 1 08:01:56.22 784.052 00:02:55 Yes
51 Zulu Synd. - VA 0429-IF20-MAIE BBWF C 2 08:01:56.45 783.940 00:02:55 Yes
52 Demers Loft - MI 0004-AU20-DEME BB H 2 08:01:56.82 783.761 00:02:55 Yes
53 Linda Loft - PA 0740-IF20-LU H 1 08:02:10.99 776.951 00:03:09 Yes
54 Tres Coronas Loft - CA 20544-AU20-SYV Seek & Destroy BBWF H 1 08:02:12.03 776.456 00:03:11 Yes
55 Thunderwing Racing Loft - GA 0116-AU20-ROSS BB C 1 08:02:20.60 772.400 00:03:19 Yes
56 Clausing - FL 0167-IF20-CLAU BB H 5 08:02:24.20 770.709 00:03:23 Yes
57 Mesopotamia Loft - MN 1737-AU20-VITA BB H 1 08:02:26.46 769.651 00:03:25 Yes
58 Shamrock - NY 0023-IF20-SHAM BB H 1 08:02:28.43 768.731 00:03:27 Yes
59 Silicon Valley Syndicate - CA 20037-AU20-SVS BB C 1 08:02:34.12 766.087 00:03:33 Yes
60 A-Lo-Loft - NY 0064-AU20-ALOL ☯️2871☯️ BC C 1 08:02:34.97 765.694 00:03:33 Yes
61 Wood Brothers - GA 6772-AU20-FOYS BCPI H 1 08:02:39.46 763.622 00:03:38 Yes
62 Candela D Pigeon Loft - GA 0029-AU20-NEA Bless BB H 4 08:02:51.75 758.008 00:03:50 Yes
63 Ed Ottusch Loft - CT 1966-AU20-WESC BC H 1 08:02:54.91 756.578 00:03:53 Yes
64 Erp-Duviel Team - GA 2001-AU20-ERP G×E BC H 1 08:02:58.63 754.901 00:03:57 Yes
65 Carreira Family Loft - GA 1410-AU20-NA Yin GRIZ C 1 08:03:19.58 745.596 00:04:18 Yes
66 Y Mtn Loft - TN 26657-AU20-YMTN BBSP H 2 08:04:05.65 725.919 00:05:04 Yes
67 Clausing - FL 0046-IF20-CLAU DC C 6 08:04:06.56 725.540 00:05:05 Yes
68 Nemeth Family Loft - CA 0671-AU20-NEME BBWF H 2 08:04:09.59 724.284 00:05:08 Yes
69 Chen & Liu Family - CT 0096-IF20-LIU RC H 2 08:04:10.87 723.754 00:05:09 Yes
70 El Santuario - GA 15314-AU20-JEDD WHGR H 1 08:04:14.40 722.298 00:05:13 Yes
71 Candela D Pigeon Loft - GA 0027-AU20-NEA La Negra BC H 5 08:04:16.54 721.418 00:05:15 Yes
72 Perez Family Loft Lugo - GA 0099-AU20-LUGO Suka BB H 1 08:05:37.58 689.603 00:06:36 Yes
73 Greek Connection - SC 0148-AU20-GRK 375 X EMAD BB C 1 08:07:18.83 653.590 00:08:17 Yes
74 Guo Fu Loft - DC 0979-AU20-GUO BB H 1 08:07:31.90 649.214 00:08:30 Missing
75 Candela D Pigeon Loft - GA 0009-AU20-NEA 4160 H BBWF C 6 08:07:35.30 648.085 00:08:34 Yes
76 ***bird Love To Fly*** - CA 1356911-BE20-BELG BC H 1 08:07:37.95 647.208 00:08:36 Yes
77 Lin Family Loft - GA 8946-AU20-LIN DC C 1 08:07:38.31 647.089 00:08:37 Yes
78 Zhao Chen - VT 29908-AU20-ARPU 35550-10428 BB H 1 08:07:39.97 646.541 00:08:38 Yes
79 Lin Family Loft - GA 8943-AU20-LIN BC C 2 08:07:46.38 644.433 00:08:45 Yes
80 Wood Brothers - GA 6768-AU20-FOYS BCWF H 2 08:08:44.93 625.799 00:09:43 Yes
81 Sugar Loft - FL 1201-AU20-CAPE SWEET FEATHER BC H 2 08:08:50.19 624.178 00:09:49 Yes
82 Xiao Loft - WI 3167-AU20-RAC BB H 2 08:10:26.35 595.951 00:11:25 Yes
83 Tepa Sindicato - CA 0918-AU20-SFPC BB H 1 08:10:52.62 588.678 00:11:51 Yes
84 B.B.& W. - CA 20080-AU20-ARPU 02-01 /2 BLK C 1 08:10:59.47 586.811 00:11:58 Yes
85 A.D.S Hilltop Family Loft - NJ 57088-AU20-ARPU OSIRUS/KIC120 DC H 1 08:11:00.50 586.531 00:11:59 Yes
86 A P C Loft - TX 20061-AU20-APC BB C 1 08:11:21.14 580.981 00:12:20 Yes
87 Mike Davis - TN 4987-AU20-VITA SMOK H 1 08:12:15.44 566.868 00:13:14 Yes
88 Jimmy Zheng Loft 2 - MS 0095-AU20-JIMM BC C 1 08:12:19.73 565.782 00:13:18 Lost
89 Erp-Duviel Team - GA 2015-AU20-ERP Flaco×129 BBWF C 2 08:12:25.42 564.349 00:13:24 Yes
90 Jones Family Loft - TX 0213-AU20-JFL BC H 1 08:12:35.61 561.799 00:13:34 Yes
91 G & L Loft - OR 0405-AU20-FHI RED C 1 08:12:36.18 561.657 00:13:35 Yes
92 Baldwin & Tillson - NC 0077-AU20-TENT 8039-8140 RRF H 1 08:12:37.13 561.421 00:13:36 Yes
93 Wood Brothers - GA 6743-AU20-FOYS CCWF C 3 08:12:38.24 561.145 00:13:37 Yes
94 Riverside Loft - NJ 0642-IF20-WVC 193/ 41 BB C 1 08:12:38.67 561.038 00:13:37 Yes
95 Sandstrom Brothers Loft - MN 0221-AU20-SBL BC H 1 08:12:39.16 560.916 00:13:38 Yes
96 B.B.& W. - CA 20008-AU20-ARPU 01-01 /2 BBWF C 2 08:12:39.17 560.914 00:13:38 Missing
97 Bill Needham - OH 10942-AU20-AA BB C 1 08:12:41.44 560.351 00:13:40 Yes
98 T C M - GA 20628-AU20-TCM BC H 1 08:12:43.90 559.742 00:13:42 Yes
99 Medina Loft Fl - FL 2003-AU20-MEDI BB H 1 08:12:47.44 558.868 00:13:46 Yes
100 Barry Karas - MI 0519-AU20-NBC DC C 1 08:12:47.93 558.747 00:13:46 Yes

There are 1045 bird records

Note: These Race Results are unofficial and subject to change until verified by the Race Committee and declared final.